sensor_id;sensor_type;location;lat;lon;timestamp;pressure;altitude;pressure_sealevel;temperature;humidity
46876;BME280;32866;50.160;14.768;2023-04-03T00:01:17;100132.22;;;3.20;100.00
46876;BME280;32866;50.160;14.768;2023-04-03T00:03:42;100131.78;;;3.18;100.00
46876;BME280;32866;50.160;14.768;2023-04-03T00:06:09;100136.88;;;3.23;100.00
46876;BME280;32866;50.160;14.768;2023-04-03T00:08:36;100134.16;;;3.23;100.00
46876;BME280;32866;50.160;14.768;2023-04-03T00:11:02;100135.00;;;3.27;100.00
46876;BME280;32866;50.160;14.768;2023-04-03T00:13:28;100141.25;;;3.31;100.00
46876;BME280;32866;50.160;14.768;2023-04-03T00:15:53;100129.66;;;3.34;100.00
46876;BME280;32866;50.160;14.768;2023-04-03T00:18:19;100135.66;;;3.17;100.00
46876;BME280;32866;50.160;14.768;2023-04-03T00:20:44;100133.78;;;3.21;100.00
46876;BME280;32866;50.160;14.768;2023-04-03T00:23:10;100136.16;;;3.26;100.00
46876;BME280;32866;50.160;14.768;2023-04-03T00:25:36;100137.38;;;3.32;100.00
46876;BME280;32866;50.160;14.768;2023-04-03T00:28:02;100131.13;;;3.28;100.00
46876;BME280;32866;50.160;14.768;2023-04-03T00:30:27;100141.19;;;3.28;100.00
46876;BME280;32866;50.160;14.768;2023-04-03T00:32:53;100141.19;;;3.28;100.00
46876;BME280;32866;50.160;14.768;2023-04-03T00:35:20;100141.44;;;3.15;100.00
46876;BME280;32866;50.160;14.768;2023-04-03T00:37:46;100143.25;;;3.04;100.00
46876;BME280;32866;50.160;14.768;2023-04-03T00:40:14;100152.69;;;3.18;100.00
46876;BME280;32866;50.160;14.768;2023-04-03T00:42:40;100112.00;;;2.80;100.00
46876;BME280;32866;50.160;14.768;2023-04-03T00:47:39;100160.19;;;2.97;100.00
46876;BME280;32866;50.160;14.768;2023-04-03T00:50:06;100156.41;;;3.06;100.00
46876;BME280;32866;50.160;14.768;2023-04-03T00:52:31;100161.28;;;2.93;100.00
46876;BME280;32866;50.160;14.768;2023-04-03T00:55:00;100171.78;;;2.98;100.00
46876;BME280;32866;50.160;14.768;2023-04-03T00:57:27;100142.84;;;2.72;100.00
46876;BME280;32866;50.160;14.768;2023-04-03T00:59:59;100134.25;;;2.66;100.00
46876;BME280;32866;50.160;14.768;2023-04-03T01:02:26;100136.69;;;2.75;100.00
46876;BME280;32866;50.160;14.768;2023-04-03T01:04:52;100178.72;;;2.95;100.00
46876;BME280;32866;50.160;14.768;2023-04-03T01:07:24;100179.69;;;2.80;100.00
46876;BME280;32866;50.160;14.768;2023-04-03T01:09:56;100183.16;;;2.81;100.00
46876;BME280;32866;50.160;14.768;2023-04-03T01:14:51;100186.09;;;2.68;100.00
46876;BME280;32866;50.160;14.768;2023-04-03T01:17:33;100194.25;;;2.72;100.00
46876;BME280;32866;50.160;14.768;2023-04-03T01:25:36;100201.09;;;2.39;100.00
46876;BME280;32866;50.160;14.768;2023-04-03T01:28:03;100204.06;;;2.30;100.00
46876;BME280;32866;50.160;14.768;2023-04-03T01:30:32;100208.19;;;2.24;100.00
46876;BME280;32866;50.160;14.768;2023-04-03T01:32:58;100163.19;;;1.89;100.00
46876;BME280;32866;50.160;14.768;2023-04-03T01:35:24;100196.53;;;1.97;100.00
46876;BME280;32866;50.160;14.768;2023-04-03T01:37:49;100212.28;;;2.14;100.00
46876;BME280;32866;50.160;14.768;2023-04-03T01:40:15;100174.66;;;1.82;100.00
46876;BME280;32866;50.160;14.768;2023-04-03T01:42:40;100184.16;;;1.96;100.00
46876;BME280;32866;50.160;14.768;2023-04-03T01:45:06;100188.16;;;1.82;100.00
46876;BME280;32866;50.160;14.768;2023-04-03T01:47:31;100187.94;;;1.68;100.00
46876;BME280;32866;50.160;14.768;2023-04-03T01:49:57;100226.63;;;1.95;100.00
46876;BME280;32866;50.160;14.768;2023-04-03T01:52:22;100224.06;;;1.79;100.00
46876;BME280;32866;50.160;14.768;2023-04-03T01:54:48;100220.50;;;1.56;100.00
46876;BME280;32866;50.160;14.768;2023-04-03T01:57:13;100227.59;;;1.64;100.00
46876;BME280;32866;50.160;14.768;2023-04-03T01:59:40;100230.03;;;1.50;100.00
46876;BME280;32866;50.160;14.768;2023-04-03T02:02:05;100203.00;;;1.30;100.00
46876;BME280;32866;50.160;14.768;2023-04-03T02:04:31;100183.38;;;1.14;100.00
46876;BME280;32866;50.160;14.768;2023-04-03T02:06:56;100191.63;;;1.01;100.00
46876;BME280;32866;50.160;14.768;2023-04-03T02:09:21;100186.34;;;0.89;100.00
46876;BME280;32866;50.160;14.768;2023-04-03T02:11:47;100184.50;;;0.93;100.00
46876;BME280;32866;50.160;14.768;2023-04-03T02:14:12;100229.81;;;1.19;100.00
46876;BME280;32866;50.160;14.768;2023-04-03T02:16:38;100230.44;;;1.13;100.00
46876;BME280;32866;50.160;14.768;2023-04-03T02:19:03;100238.81;;;1.07;100.00
46876;BME280;32866;50.160;14.768;2023-04-03T02:21:29;100190.38;;;0.79;100.00
46876;BME280;32866;50.160;14.768;2023-04-03T02:23:54;100205.78;;;0.79;100.00
46876;BME280;32866;50.160;14.768;2023-04-03T02:26:20;100183.81;;;0.61;100.00
46876;BME280;32866;50.160;14.768;2023-04-03T02:28:46;100227.09;;;0.84;100.00
46876;BME280;32866;50.160;14.768;2023-04-03T02:31:12;100196.00;;;0.39;100.00
46876;BME280;32866;50.160;14.768;2023-04-03T02:33:38;100230.53;;;0.49;100.00
46876;BME280;32866;50.160;14.768;2023-04-03T02:36:05;100227.16;;;0.36;100.00
46876;BME280;32866;50.160;14.768;2023-04-03T02:38:30;100234.81;;;0.34;100.00
46876;BME280;32866;50.160;14.768;2023-04-03T02:41:04;100240.59;;;0.20;100.00
46876;BME280;32866;50.160;14.768;2023-04-03T02:43:30;100196.16;;;-0.18;100.00
46876;BME280;32866;50.160;14.768;2023-04-03T02:45:55;100241.94;;;0.10;100.00
46876;BME280;32866;50.160;14.768;2023-04-03T02:48:22;100244.16;;;0.08;100.00
46876;BME280;32866;50.160;14.768;2023-04-03T02:50:47;100245.72;;;-0.07;100.00
46876;BME280;32866;50.160;14.768;2023-04-03T02:53:13;100220.09;;;-0.57;100.00
46876;BME280;32866;50.160;14.768;2023-04-03T02:55:38;100258.72;;;-0.25;100.00
46876;BME280;32866;50.160;14.768;2023-04-03T02:58:03;100267.13;;;-0.26;100.00
46876;BME280;32866;50.160;14.768;2023-04-03T03:00:29;100246.59;;;-0.31;100.00
46876;BME280;32866;50.160;14.768;2023-04-03T03:02:55;100271.44;;;-0.38;100.00
46876;BME280;32866;50.160;14.768;2023-04-03T03:05:20;100267.66;;;-0.49;100.00
46876;BME280;32866;50.160;14.768;2023-04-03T03:07:45;100224.09;;;-0.79;100.00
46876;BME280;32866;50.160;14.768;2023-04-03T03:10:11;100228.25;;;-0.82;100.00
46876;BME280;32866;50.160;14.768;2023-04-03T03:12:36;100273.06;;;-0.61;100.00
46876;BME280;32866;50.160;14.768;2023-04-03T03:15:01;100270.81;;;-0.59;100.00
46876;BME280;32866;50.160;14.768;2023-04-03T03:17:27;100273.56;;;-0.71;100.00
46876;BME280;32866;50.160;14.768;2023-04-03T03:19:52;100252.72;;;-0.99;100.00
46876;BME280;32866;50.160;14.768;2023-04-03T03:22:18;100261.44;;;-0.78;100.00
46876;BME280;32866;50.160;14.768;2023-04-03T03:24:43;100241.31;;;-1.08;100.00
46876;BME280;32866;50.160;14.768;2023-04-03T03:27:08;100274.47;;;-0.80;100.00
46876;BME280;32866;50.160;14.768;2023-04-03T03:29:34;100279.75;;;-0.96;100.00
46876;BME280;32866;50.160;14.768;2023-04-03T03:32:00;100263.63;;;-1.08;100.00
46876;BME280;32866;50.160;14.768;2023-04-03T03:34:25;100278.97;;;-0.84;100.00
46876;BME280;32866;50.160;14.768;2023-04-03T03:36:50;100284.22;;;-0.87;100.00
46876;BME280;32866;50.160;14.768;2023-04-03T03:39:16;100281.00;;;-1.05;100.00
46876;BME280;32866;50.160;14.768;2023-04-03T03:41:41;100287.72;;;-1.12;100.00
46876;BME280;32866;50.160;14.768;2023-04-03T03:44:06;100292.09;;;-1.19;100.00
46876;BME280;32866;50.160;14.768;2023-04-03T03:46:32;100291.19;;;-0.99;100.00
46876;BME280;32866;50.160;14.768;2023-04-03T03:48:57;100302.72;;;-1.23;100.00
46876;BME280;32866;50.160;14.768;2023-04-03T03:51:22;100281.88;;;-1.26;100.00
46876;BME280;32866;50.160;14.768;2023-04-03T03:53:48;100269.97;;;-1.62;100.00
46876;BME280;32866;50.160;14.768;2023-04-03T03:56:13;100277.38;;;-1.46;100.00
46876;BME280;32866;50.160;14.768;2023-04-03T03:58:39;100268.41;;;-1.63;100.00
46876;BME280;32866;50.160;14.768;2023-04-03T04:01:04;100303.63;;;-1.43;100.00
46876;BME280;32866;50.160;14.768;2023-04-03T04:03:33;100307.44;;;-1.32;100.00
46876;BME280;32866;50.160;14.768;2023-04-03T04:05:58;100282.09;;;-1.43;100.00
46876;BME280;32866;50.160;14.768;2023-04-03T04:08:24;100298.47;;;-1.36;100.00
46876;BME280;32866;50.160;14.768;2023-04-03T04:10:50;100306.75;;;-1.41;100.00
46876;BME280;32866;50.160;14.768;2023-04-03T04:13:15;100259.84;;;-1.90;100.00
46876;BME280;32866;50.160;14.768;2023-04-03T04:15:40;100304.47;;;-1.64;100.00
46876;BME280;32866;50.160;14.768;2023-04-03T04:18:06;100267.44;;;-1.92;100.00
46876;BME280;32866;50.160;14.768;2023-04-03T04:20:31;100310.84;;;-1.69;100.00
46876;BME280;32866;50.160;14.768;2023-04-03T04:22:56;100287.09;;;-1.79;100.00
46876;BME280;32866;50.160;14.768;2023-04-03T04:25:22;100278.84;;;-1.95;100.00
46876;BME280;32866;50.160;14.768;2023-04-03T04:27:47;100283.78;;;-1.97;100.00
46876;BME280;32866;50.160;14.768;2023-04-03T04:30:13;100309.19;;;-1.61;100.00
46876;BME280;32866;50.160;14.768;2023-04-03T04:32:38;100328.59;;;-1.55;100.00
46876;BME280;32866;50.160;14.768;2023-04-03T04:35:04;100329.25;;;-1.58;100.00
46876;BME280;32866;50.160;14.768;2023-04-03T04:37:30;100334.94;;;-1.60;100.00
46876;BME280;32866;50.160;14.768;2023-04-03T04:39:56;100284.22;;;-1.95;100.00
46876;BME280;32866;50.160;14.768;2023-04-03T04:42:21;100327.31;;;-1.70;100.00
46876;BME280;32866;50.160;14.768;2023-04-03T04:44:46;100338.28;;;-1.63;100.00
46876;BME280;32866;50.160;14.768;2023-04-03T04:47:12;100338.28;;;-1.63;100.00
46876;BME280;32866;50.160;14.768;2023-04-03T04:49:37;100303.50;;;-1.93;100.00
46876;BME280;32866;50.160;14.768;2023-04-03T04:52:03;100346.56;;;-1.68;100.00
46876;BME280;32866;50.160;14.768;2023-04-03T04:54:28;100351.41;;;-1.61;100.00
46876;BME280;32866;50.160;14.768;2023-04-03T04:56:53;100354.91;;;-1.61;100.00
46876;BME280;32866;50.160;14.768;2023-04-03T04:59:19;100322.13;;;-1.88;100.00
46876;BME280;32866;50.160;14.768;2023-04-03T05:01:44;100297.00;;;-1.92;100.00
46876;BME280;32866;50.160;14.768;2023-04-03T05:04:10;100363.63;;;-1.64;100.00
46876;BME280;32866;50.160;14.768;2023-04-03T05:06:37;100362.75;;;-1.56;100.00
46876;BME280;32866;50.160;14.768;2023-04-03T05:09:03;100335.41;;;-1.58;100.00
46876;BME280;32866;50.160;14.768;2023-04-03T05:11:29;100375.56;;;-1.40;100.00
46876;BME280;32866;50.160;14.768;2023-04-03T05:13:54;100369.88;;;-1.14;100.00
46876;BME280;32866;50.160;14.768;2023-04-03T05:16:19;100368.22;;;-1.19;100.00
46876;BME280;32866;50.160;14.768;2023-04-03T05:18:45;100380.09;;;-1.07;100.00
46876;BME280;32866;50.160;14.768;2023-04-03T05:21:10;100371.91;;;-0.86;100.00
46876;BME280;32866;50.160;14.768;2023-04-03T05:23:35;100347.47;;;-1.06;100.00
46876;BME280;32866;50.160;14.768;2023-04-03T05:26:01;100358.34;;;-0.90;100.00
46876;BME280;32866;50.160;14.768;2023-04-03T05:28:26;100383.25;;;-0.81;100.00
46876;BME280;32866;50.160;14.768;2023-04-03T05:30:56;100378.78;;;-0.77;100.00
46876;BME280;32866;50.160;14.768;2023-04-03T05:33:23;100377.41;;;-0.70;100.00
46876;BME280;32866;50.160;14.768;2023-04-03T05:35:49;100385.28;;;-0.65;100.00
46876;BME280;32866;50.160;14.768;2023-04-03T05:38:14;100351.84;;;-0.77;100.00
46876;BME280;32866;50.160;14.768;2023-04-03T05:40:40;100385.69;;;-0.51;100.00
46876;BME280;32866;50.160;14.768;2023-04-03T05:43:05;100384.47;;;-0.66;100.00
46876;BME280;32866;50.160;14.768;2023-04-03T05:45:30;100371.78;;;-0.53;100.00
46876;BME280;32866;50.160;14.768;2023-04-03T05:47:56;100360.59;;;-0.55;100.00
46876;BME280;32866;50.160;14.768;2023-04-03T05:50:21;100377.59;;;-0.26;100.00
46876;BME280;32866;50.160;14.768;2023-04-03T05:52:49;100379.50;;;0.02;100.00
46876;BME280;32866;50.160;14.768;2023-04-03T05:55:16;100413.25;;;0.52;100.00
46876;BME280;32866;50.160;14.768;2023-04-03T05:57:41;100416.38;;;0.98;100.00
46876;BME280;32866;50.160;14.768;2023-04-03T06:00:08;100411.03;;;1.50;100.00
46876;BME280;32866;50.160;14.768;2023-04-03T06:02:38;100405.16;;;1.63;100.00
46876;BME280;32866;50.160;14.768;2023-04-03T06:05:03;100409.78;;;1.98;100.00
46876;BME280;32866;50.160;14.768;2023-04-03T06:07:29;100384.88;;;2.28;100.00
46876;BME280;32866;50.160;14.768;2023-04-03T06:09:56;100413.16;;;2.73;100.00
46876;BME280;32866;50.160;14.768;2023-04-03T06:12:22;100418.19;;;3.21;100.00
46876;BME280;32866;50.160;14.768;2023-04-03T06:14:48;100418.56;;;2.96;100.00
46876;BME280;32866;50.160;14.768;2023-04-03T06:17:14;100428.06;;;2.64;100.00
46876;BME280;32866;50.160;14.768;2023-04-03T06:19:40;100420.53;;;2.34;100.00
46876;BME280;32866;50.160;14.768;2023-04-03T06:22:06;100434.41;;;2.32;100.00
46876;BME280;32866;50.160;14.768;2023-04-03T06:24:32;100436.47;;;2.58;100.00
46876;BME280;32866;50.160;14.768;2023-04-03T06:26:58;100443.19;;;2.88;100.00
46876;BME280;32866;50.160;14.768;2023-04-03T06:29:23;100431.19;;;2.66;100.00
46876;BME280;32866;50.160;14.768;2023-04-03T06:31:49;100448.59;;;2.88;100.00
46876;BME280;32866;50.160;14.768;2023-04-03T06:34:15;100408.09;;;2.72;100.00
46876;BME280;32866;50.160;14.768;2023-04-03T06:36:42;100447.72;;;3.80;100.00
46876;BME280;32866;50.160;14.768;2023-04-03T06:39:10;100425.44;;;3.94;100.00
46876;BME280;32866;50.160;14.768;2023-04-03T06:41:38;100450.44;;;4.06;100.00
46876;BME280;32866;50.160;14.768;2023-04-03T06:44:03;100452.16;;;4.90;100.00
46876;BME280;32866;50.160;14.768;2023-04-03T06:46:29;100417.75;;;5.56;100.00
46876;BME280;32866;50.160;14.768;2023-04-03T06:48:54;100455.19;;;5.81;100.00
46876;BME280;32866;50.160;14.768;2023-04-03T06:51:22;100452.44;;;6.51;100.00
46876;BME280;32866;50.160;14.768;2023-04-03T06:53:48;100441.00;;;6.06;98.72
46876;BME280;32866;50.160;14.768;2023-04-03T06:56:14;100446.44;;;6.06;98.33
46876;BME280;32866;50.160;14.768;2023-04-03T06:58:40;100447.66;;;6.19;97.27
46876;BME280;32866;50.160;14.768;2023-04-03T07:01:05;100408.94;;;6.87;92.00
46876;BME280;32866;50.160;14.768;2023-04-03T07:03:31;100450.22;;;7.03;92.22
46876;BME280;32866;50.160;14.768;2023-04-03T07:05:56;100412.81;;;6.75;84.32
46876;BME280;32866;50.160;14.768;2023-04-03T07:08:21;100459.56;;;7.82;85.62
46876;BME280;32866;50.160;14.768;2023-04-03T07:10:48;100455.59;;;8.04;77.84
46876;BME280;32866;50.160;14.768;2023-04-03T07:13:15;100461.53;;;7.70;78.48
46876;BME280;32866;50.160;14.768;2023-04-03T07:15:40;100458.81;;;7.56;79.79
46876;BME280;32866;50.160;14.768;2023-04-03T07:18:06;100468.38;;;8.43;75.37
46876;BME280;32866;50.160;14.768;2023-04-03T07:20:31;100467.22;;;8.23;74.31
46876;BME280;32866;50.160;14.768;2023-04-03T07:22:57;100471.75;;;8.69;75.50
46876;BME280;32866;50.160;14.768;2023-04-03T07:25:22;100468.41;;;9.10;70.80
46876;BME280;32866;50.160;14.768;2023-04-03T07:27:48;100466.91;;;9.92;67.00
46876;BME280;32866;50.160;14.768;2023-04-03T07:30:14;100467.03;;;9.78;57.31
46876;BME280;32866;50.160;14.768;2023-04-03T07:32:40;100424.69;;;10.20;57.85
46876;BME280;32866;50.160;14.768;2023-04-03T07:35:06;100461.91;;;10.18;55.29
46876;BME280;32866;50.160;14.768;2023-04-03T07:37:31;100459.63;;;9.29;56.92
46876;BME280;32866;50.160;14.768;2023-04-03T07:39:57;100438.63;;;9.19;56.06
46876;BME280;32866;50.160;14.768;2023-04-03T07:42:24;100457.41;;;9.62;54.08
46876;BME280;32866;50.160;14.768;2023-04-03T07:44:51;100455.19;;;8.98;55.68
46876;BME280;32866;50.160;14.768;2023-04-03T07:47:17;100463.13;;;9.79;51.05
46876;BME280;32866;50.160;14.768;2023-04-03T07:49:43;100458.84;;;10.47;50.82
46876;BME280;32866;50.160;14.768;2023-04-03T07:52:08;100426.66;;;10.82;50.20
46876;BME280;32866;50.160;14.768;2023-04-03T07:54:34;100422.41;;;10.50;50.11
46876;BME280;32866;50.160;14.768;2023-04-03T07:57:00;100429.00;;;10.83;50.62
46876;BME280;32866;50.160;14.768;2023-04-03T07:59:25;100453.94;;;11.43;50.05
46876;BME280;32866;50.160;14.768;2023-04-03T08:01:51;100448.59;;;9.82;49.77
46876;BME280;32866;50.160;14.768;2023-04-03T08:04:16;100439.09;;;8.44;53.71
46876;BME280;32866;50.160;14.768;2023-04-03T08:06:41;100428.44;;;7.21;56.43
46876;BME280;32866;50.160;14.768;2023-04-03T08:09:07;100447.03;;;8.02;56.12
46876;BME280;32866;50.160;14.768;2023-04-03T08:11:33;100457.25;;;7.26;56.31
46876;BME280;32866;50.160;14.768;2023-04-03T08:13:58;100413.66;;;7.26;57.83
46876;BME280;32866;50.160;14.768;2023-04-03T08:16:24;100458.81;;;7.05;58.09
46876;BME280;32866;50.160;14.768;2023-04-03T08:18:53;100453.75;;;7.58;57.63
46876;BME280;32866;50.160;14.768;2023-04-03T08:21:18;100457.25;;;7.12;58.90
46876;BME280;32866;50.160;14.768;2023-04-03T08:23:44;100454.25;;;6.18;61.27
46876;BME280;32866;50.160;14.768;2023-04-03T08:26:15;100414.94;;;8.28;57.54
46876;BME280;32866;50.160;14.768;2023-04-03T08:28:42;100416.69;;;7.64;55.08
46876;BME280;32866;50.160;14.768;2023-04-03T08:31:11;100449.34;;;8.11;55.05
46876;BME280;32866;50.160;14.768;2023-04-03T08:33:37;100429.72;;;10.29;49.92
46876;BME280;32866;50.160;14.768;2023-04-03T08:36:14;100443.06;;;11.36;45.25
46876;BME280;32866;50.160;14.768;2023-04-03T08:38:40;100458.66;;;9.05;47.36
46876;BME280;32866;50.160;14.768;2023-04-03T08:44:19;100458.16;;;8.58;52.16
46876;BME280;32866;50.160;14.768;2023-04-03T08:49:43;100459.09;;;6.64;52.41
46876;BME280;32866;50.160;14.768;2023-04-03T08:52:18;100428.38;;;6.60;54.32
46876;BME280;32866;50.160;14.768;2023-04-03T08:54:53;100419.72;;;6.37;55.11
46876;BME280;32866;50.160;14.768;2023-04-03T08:59:51;100396.50;;;7.11;51.91
46876;BME280;32866;50.160;14.768;2023-04-03T09:02:27;100451.75;;;6.79;52.19
46876;BME280;32866;50.160;14.768;2023-04-03T09:04:54;100418.19;;;8.01;48.75
46876;BME280;32866;50.160;14.768;2023-04-03T09:07:29;100426.09;;;7.27;49.15
46876;BME280;32866;50.160;14.768;2023-04-03T09:09:59;100468.88;;;6.80;51.50
46876;BME280;32866;50.160;14.768;2023-04-03T09:12:37;100467.75;;;7.64;50.86
46876;BME280;32866;50.160;14.768;2023-04-03T09:23:01;100477.34;;;9.14;44.94
46876;BME280;32866;50.160;14.768;2023-04-03T09:25:32;100457.34;;;9.70;44.17
46876;BME280;32866;50.160;14.768;2023-04-03T09:28:00;100474.25;;;9.05;46.49
46876;BME280;32866;50.160;14.768;2023-04-03T09:30:35;100470.19;;;9.76;43.25
46876;BME280;32866;50.160;14.768;2023-04-03T09:33:02;100467.28;;;10.90;42.22
46876;BME280;32866;50.160;14.768;2023-04-03T09:38:21;100472.88;;;11.34;41.83
46876;BME280;32866;50.160;14.768;2023-04-03T09:41:16;100468.50;;;13.17;36.14
46876;BME280;32866;50.160;14.768;2023-04-03T09:43:52;100467.50;;;12.38;38.11
46876;BME280;32866;50.160;14.768;2023-04-03T09:46:25;100477.97;;;13.16;36.66
46876;BME280;32866;50.160;14.768;2023-04-03T09:49:02;100470.38;;;14.83;34.98
46876;BME280;32866;50.160;14.768;2023-04-03T09:51:29;100471.06;;;13.73;35.16
46876;BME280;32866;50.160;14.768;2023-04-03T09:53:56;100477.44;;;11.88;37.18
46876;BME280;32866;50.160;14.768;2023-04-03T09:56:31;100456.69;;;9.96;37.90
46876;BME280;32866;50.160;14.768;2023-04-03T10:06:34;100460.97;;;14.13;33.04
46876;BME280;32866;50.160;14.768;2023-04-03T10:09:03;100452.25;;;11.73;36.19
46876;BME280;32866;50.160;14.768;2023-04-03T10:11:30;100468.34;;;10.04;37.28
46876;BME280;32866;50.160;14.768;2023-04-03T10:13:58;100473.00;;;9.20;39.14
46876;BME280;32866;50.160;14.768;2023-04-03T10:16:52;100464.66;;;8.82;40.49
46876;BME280;32866;50.160;14.768;2023-04-03T10:25:28;100463.31;;;8.31;42.69
46876;BME280;32866;50.160;14.768;2023-04-03T10:28:03;100461.13;;;7.54;45.13
46876;BME280;32866;50.160;14.768;2023-04-03T10:30:33;100460.75;;;7.66;45.64
46876;BME280;32866;50.160;14.768;2023-04-03T10:39:33;100449.47;;;7.42;45.33
46876;BME280;32866;50.160;14.768;2023-04-03T10:42:27;100446.75;;;7.21;45.48
46876;BME280;32866;50.160;14.768;2023-04-03T10:45:17;100453.34;;;6.98;45.25
46876;BME280;32866;50.160;14.768;2023-04-03T10:51:22;100448.81;;;13.18;34.08
46876;BME280;32866;50.160;14.768;2023-04-03T10:53:54;100436.50;;;14.82;32.43
46876;BME280;32866;50.160;14.768;2023-04-03T10:59:31;100444.81;;;10.72;36.28
46876;BME280;32866;50.160;14.768;2023-04-03T11:04:36;100447.25;;;12.48;36.46
46876;BME280;32866;50.160;14.768;2023-04-03T11:09:39;100446.75;;;8.74;39.96
46876;BME280;32866;50.160;14.768;2023-04-03T11:12:33;100441.47;;;8.31;42.58
46876;BME280;32866;50.160;14.768;2023-04-03T11:15:02;100434.38;;;8.51;42.86
46876;BME280;32866;50.160;14.768;2023-04-03T11:17:38;100391.84;;;7.26;43.90
46876;BME280;32866;50.160;14.768;2023-04-03T11:20:23;100444.78;;;7.61;42.94
46876;BME280;32866;50.160;14.768;2023-04-03T11:23:05;100439.84;;;8.41;41.60
46876;BME280;32866;50.160;14.768;2023-04-03T11:25:36;100436.44;;;10.21;36.14
46876;BME280;32866;50.160;14.768;2023-04-03T11:28:12;100444.06;;;12.86;35.84
46876;BME280;32866;50.160;14.768;2023-04-03T11:33:51;100430.38;;;12.30;35.80
46876;BME280;32866;50.160;14.768;2023-04-03T11:36:26;100433.59;;;12.97;36.46
46876;BME280;32866;50.160;14.768;2023-04-03T11:38:57;100426.09;;;11.18;36.43
46876;BME280;32866;50.160;14.768;2023-04-03T11:41:31;100428.28;;;11.30;37.50
46876;BME280;32866;50.160;14.768;2023-04-03T11:44:11;100422.06;;;14.10;35.66
46876;BME280;32866;50.160;14.768;2023-04-03T11:46:54;100416.88;;;13.54;36.14
46876;BME280;32866;50.160;14.768;2023-04-03T11:49:52;100429.50;;;11.02;37.84
46876;BME280;32866;50.160;14.768;2023-04-03T12:00:59;100423.25;;;12.69;36.07
46876;BME280;32866;50.160;14.768;2023-04-03T12:16:19;100419.09;;;10.35;38.42
46876;BME280;32866;50.160;14.768;2023-04-03T12:21:15;100401.69;;;13.79;34.07
46876;BME280;32866;50.160;14.768;2023-04-03T12:27:03;100415.63;;;9.13;40.15
46876;BME280;32866;50.160;14.768;2023-04-03T12:29:38;100394.00;;;8.03;43.39
46876;BME280;32866;50.160;14.768;2023-04-03T12:45:56;100405.28;;;8.05;43.70
46876;BME280;32866;50.160;14.768;2023-04-03T12:48:28;100409.34;;;7.21;44.88
46876;BME280;32866;50.160;14.768;2023-04-03T12:50:55;100407.78;;;6.84;45.96
46876;BME280;32866;50.160;14.768;2023-04-03T12:53:26;100406.63;;;6.89;45.72
46876;BME280;32866;50.160;14.768;2023-04-03T12:55:55;100385.50;;;6.32;47.22
46876;BME280;32866;50.160;14.768;2023-04-03T12:58:27;100396.84;;;6.56;46.74
46876;BME280;32866;50.160;14.768;2023-04-03T13:01:13;100411.25;;;6.63;45.75
46876;BME280;32866;50.160;14.768;2023-04-03T13:03:43;100383.66;;;6.83;46.24
46876;BME280;32866;50.160;14.768;2023-04-03T13:06:41;100389.94;;;8.44;44.51
46876;BME280;32866;50.160;14.768;2023-04-03T13:09:37;100392.00;;;8.88;42.90
46876;BME280;32866;50.160;14.768;2023-04-03T13:12:10;100403.69;;;8.89;41.27
46876;BME280;32866;50.160;14.768;2023-04-03T13:14:37;100364.66;;;8.22;42.19
46876;BME280;32866;50.160;14.768;2023-04-03T13:17:16;100370.03;;;8.47;42.80
46876;BME280;32866;50.160;14.768;2023-04-03T13:19:43;100400.19;;;9.37;41.32
46876;BME280;32866;50.160;14.768;2023-04-03T13:24:49;100401.69;;;8.23;43.42
46876;BME280;32866;50.160;14.768;2023-04-03T13:27:16;100367.81;;;8.83;43.64
46876;BME280;32866;50.160;14.768;2023-04-03T13:29:41;100396.16;;;9.49;42.77
46876;BME280;32866;50.160;14.768;2023-04-03T13:32:18;100403.91;;;9.13;44.96
46876;BME280;32866;50.160;14.768;2023-04-03T13:34:44;100360.56;;;7.74;44.05
46876;BME280;32866;50.160;14.768;2023-04-03T13:37:26;100405.41;;;7.62;44.61
46876;BME280;32866;50.160;14.768;2023-04-03T13:40:17;100401.94;;;7.18;45.59
46876;BME280;32866;50.160;14.768;2023-04-03T13:42:43;100402.34;;;7.06;46.38
46876;BME280;32866;50.160;14.768;2023-04-03T13:45:21;100402.72;;;6.86;46.86
46876;BME280;32866;50.160;14.768;2023-04-03T13:47:50;100405.81;;;6.81;45.53
46876;BME280;32866;50.160;14.768;2023-04-03T13:50:21;100388.72;;;6.88;46.44
46876;BME280;32866;50.160;14.768;2023-04-03T13:53:11;100394.53;;;6.72;46.91
46876;BME280;32866;50.160;14.768;2023-04-03T13:55:53;100398.34;;;6.39;47.73
46876;BME280;32866;50.160;14.768;2023-04-03T13:58:25;100391.72;;;6.43;46.96
46876;BME280;32866;50.160;14.768;2023-04-03T14:03:41;100392.47;;;6.19;47.14
46876;BME280;32866;50.160;14.768;2023-04-03T14:06:13;100388.56;;;6.20;45.76
46876;BME280;32866;50.160;14.768;2023-04-03T14:08:39;100384.38;;;6.58;47.61
46876;BME280;32866;50.160;14.768;2023-04-03T14:11:05;100389.09;;;7.33;45.45
46876;BME280;32866;50.160;14.768;2023-04-03T14:13:31;100340.44;;;6.99;45.90
46876;BME280;32866;50.160;14.768;2023-04-03T14:15:57;100343.56;;;6.73;45.40
46876;BME280;32866;50.160;14.768;2023-04-03T14:18:22;100386.34;;;6.68;45.07
46876;BME280;32866;50.160;14.768;2023-04-03T14:20:48;100383.16;;;6.30;45.30
46876;BME280;32866;50.160;14.768;2023-04-03T14:23:14;100391.72;;;6.43;46.89
46876;BME280;32866;50.160;14.768;2023-04-03T14:25:40;100389.06;;;6.54;47.56
46876;BME280;32866;50.160;14.768;2023-04-03T14:28:20;100394.84;;;6.38;47.08
46876;BME280;32866;50.160;14.768;2023-04-03T14:30:47;100390.22;;;6.53;47.38
46876;BME280;32866;50.160;14.768;2023-04-03T14:33:15;100389.75;;;6.22;48.39
46876;BME280;32866;50.160;14.768;2023-04-03T14:35:41;100387.78;;;6.19;48.43
46876;BME280;32866;50.160;14.768;2023-04-03T14:38:27;100390.13;;;6.24;47.24